Time;durP1;ratioP1;P1;durP2;ratioP2;P2;SDS_P1;SDS_P2;PMS_P1;PMS_P2;Temp;Humidity;BMP_temperature;BMP_pressure;BME280_temperature;BME280_humidity;BME280_pressure;Samples;Min_cycle;Max_cycle;Signal;HPM_P1;HPM_P2
2022/09/11 00:01:08;;;;;;;3.03;2.07;;;19.40;99.90;;;;;;5056950;28;20453;-95
2022/09/11 00:03:35;;;;;;;3.70;1.80;;;19.40;99.90;;;;;;5057128;28;20204;-96
2022/09/11 00:06:12;;;;;;;1.90;1.80;;;19.50;99.90;;;;;;5056686;28;20456;-93
2022/09/11 00:08:38;;;;;;;3.20;2.27;;;19.40;99.90;;;;;;5056266;28;20945;-95
2022/09/11 00:11:11;;;;;;;1.90;1.63;;;19.40;99.90;;;;;;5057497;28;20454;-92
2022/09/11 00:13:39;;;;;;;2.83;1.77;;;19.40;99.90;;;;;;5056256;28;20510;-91
2022/09/11 00:16:07;;;;;;;1.67;1.53;;;19.40;99.90;;;;;;5057010;28;20445;-92
2022/09/11 00:18:37;;;;;;;1.60;1.50;;;19.40;99.90;;;;;;5058997;28;20856;-92
2022/09/11 00:21:06;;;;;;;1.93;1.53;;;19.40;99.90;;;;;;5068825;28;20460;-93
2022/09/11 00:23:32;;;;;;;1.70;1.60;;;19.40;99.90;;;;;;5059452;28;20405;-95
2022/09/11 00:26:01;;;;;;;1.97;1.50;;;19.40;99.90;;;;;;5055672;28;20457;-94
2022/09/11 00:28:28;;;;;;;2.10;1.60;;;19.40;99.90;;;;;;5055635;28;20184;-94
2022/09/11 00:31:01;;;;;;;2.27;1.50;;;19.40;99.90;;;;;;5057566;28;20441;-91
2022/09/11 00:33:28;;;;;;;2.80;1.87;;;19.40;99.90;;;;;;5059713;28;20462;-92
2022/09/11 00:36:00;;;;;;;1.63;1.53;;;19.40;99.90;;;;;;5055806;28;20445;-95
2022/09/11 00:38:27;;;;;;;1.73;1.30;;;19.40;99.90;;;;;;5055946;28;20425;-92
2022/09/11 00:40:54;;;;;;;2.20;1.60;;;19.40;99.90;;;;;;5055889;28;20454;-93
2022/09/11 00:43:20;;;;;;;1.87;1.60;;;19.40;99.90;;;;;;5056059;28;20425;-92
2022/09/11 00:45:53;;;;;;;1.30;1.20;;;19.40;99.90;;;;;;5055688;28;20865;-91
2022/09/11 00:48:23;;;;;;;3.23;1.17;;;19.40;99.90;;;;;;5056309;28;20403;-95
2022/09/11 00:50:50;;;;;;;1.50;1.40;;;19.40;99.90;;;;;;5057667;28;20575;-92
2022/09/11 00:53:19;;;;;;;1.93;1.67;;;19.30;99.90;;;;;;5056602;28;20466;-92
2022/09/11 00:55:49;;;;;;;1.70;1.60;;;19.30;99.90;;;;;;5055529;28;20572;-92
2022/09/11 00:58:20;;;;;;;2.60;2.00;;;19.30;99.90;;;;;;5055940;28;20989;-95
2022/09/11 01:00:46;;;;;;;2.90;1.77;;;19.30;99.90;;;;;;5056167;28;20455;-92
2022/09/11 01:03:13;;;;;;;2.10;1.90;;;19.30;99.90;;;;;;5062878;28;20414;-94
2022/09/11 01:05:42;;;;;;;2.47;1.90;;;19.20;99.90;;;;;;5055362;28;20462;-96
2022/09/11 01:08:09;;;;;;;4.63;2.17;;;19.20;99.90;;;;;;5054627;28;21047;-92
2022/09/11 01:10:46;;;;;;;3.00;2.30;;;19.20;99.90;;;;;;5054527;28;20601;-92
2022/09/11 01:13:42;;;;;;;3.90;2.70;;;19.20;99.90;;;;;;5055938;28;20548;-92
2022/09/11 01:16:16;;;;;;;2.53;2.33;;;19.20;99.90;;;;;;5051028;28;20453;-95
2022/09/11 01:18:49;;;;;;;2.53;2.30;;;19.10;99.90;;;;;;5055534;28;20421;-95
2022/09/11 01:21:37;;;;;;;3.83;2.67;;;19.10;99.90;;;;;;5054932;28;20445;-92
2022/09/11 01:24:28;;;;;;;3.27;2.97;;;19.00;99.90;;;;;;5055949;28;20433;-94
2022/09/11 01:27:05;;;;;;;3.60;2.27;;;19.00;99.90;;;;;;5047682;28;20945;-91
2022/09/11 01:29:43;;;;;;;2.40;2.20;;;19.00;99.90;;;;;;5055462;28;20525;-95
2022/09/11 01:32:22;;;;;;;3.93;2.80;;;19.00;99.90;;;;;;5056223;28;20512;-92
2022/09/11 01:35:30;;;;;;;3.00;2.53;;;19.00;99.90;;;;;;5055273;28;20442;-92
2022/09/11 01:38:05;;;;;;;2.40;2.10;;;18.90;99.90;;;;;;5047978;28;20427;-94
2022/09/11 01:40:44;;;;;;;4.10;2.00;;;18.90;99.90;;;;;;5061614;28;20468;-95
2022/09/11 01:43:15;;;;;;;3.50;2.70;;;18.90;99.90;;;;;;5063935;28;20504;-92
2022/09/11 01:45:45;;;;;;;3.27;2.00;;;18.90;99.90;;;;;;5061008;28;20451;-92
2022/09/11 01:48:14;;;;;;;3.20;2.57;;;18.90;99.90;;;;;;5056775;28;20937;-95
2022/09/11 01:50:44;;;;;;;3.53;2.93;;;18.90;99.90;;;;;;5056020;28;20445;-91
2022/09/11 01:53:14;;;;;;;2.90;2.70;;;18.80;99.90;;;;;;5055092;28;20470;-92
2022/09/11 01:55:47;;;;;;;2.40;2.20;;;18.80;99.90;;;;;;5055711;28;20461;-95
2022/09/11 01:58:21;;;;;;;4.13;2.00;;;18.80;99.90;;;;;;5055942;28;20418;-95
2022/09/11 02:00:51;;;;;;;2.13;1.93;;;18.70;99.90;;;;;;5054961;28;20500;-94
2022/09/11 02:03:24;;;;;;;3.50;2.37;;;18.80;99.90;;;;;;5054233;28;20422;-92
2022/09/11 02:05:59;;;;;;;3.60;2.43;;;18.70;99.90;;;;;;5055586;28;20517;-96
2022/09/11 02:08:48;;;;;;;2.93;2.23;;;18.70;99.90;;;;;;5056155;28;20902;-94
2022/09/11 02:11:15;;;;;;;9.70;2.77;;;18.70;99.90;;;;;;5045547;28;20433;-95
2022/09/11 02:14:01;;;;;;;3.67;2.70;;;18.70;99.90;;;;;;5054920;28;20464;-95
2022/09/11 02:16:49;;;;;;;2.30;2.10;;;18.70;99.90;;;;;;5060184;28;20478;-95
2022/09/11 02:19:25;;;;;;;2.30;2.10;;;18.60;99.90;;;;;;5055421;28;20441;-95
2022/09/11 02:21:51;;;;;;;2.33;1.83;;;18.60;99.90;;;;;;5059440;28;20438;-95
2022/09/11 02:24:18;;;;;;;3.00;2.23;;;18.60;99.90;;;;;;5060368;28;20431;-92
2022/09/11 02:26:49;;;;;;;3.17;2.10;;;18.60;99.90;;;;;;5059392;28;20439;-94
2022/09/11 02:29:15;;;;;;;3.00;2.17;;;18.60;99.90;;;;;;5059383;28;20530;-92
2022/09/11 02:31:41;;;;;;;1.97;1.87;;;18.60;99.90;;;;;;5060060;28;20426;-92
2022/09/11 02:34:10;;;;;;;2.90;2.23;;;18.60;99.90;;;;;;5059053;28;20443;-95
2022/09/11 02:37:09;;;;;;;2.60;2.07;;;18.60;99.90;;;;;;5059053;28;20519;-95
2022/09/11 02:39:41;;;;;;;2.83;1.90;;;18.50;99.90;;;;;;5059383;28;20804;-95
2022/09/11 02:42:46;;;;;;;2.37;2.17;;;18.50;99.90;;;;;;5062922;28;21006;-92
2022/09/11 02:45:31;;;;;;;2.10;1.70;;;18.50;99.90;;;;;;5027519;28;20481;-95
2022/09/11 02:48:18;;;;;;;3.37;2.47;;;18.50;99.90;;;;;;5057354;28;20424;-92
2022/09/11 02:51:08;;;;;;;2.57;2.37;;;18.40;99.90;;;;;;5057310;28;20977;-95
2022/09/11 02:54:04;;;;;;;2.10;1.90;;;18.40;99.90;;;;;;5057461;28;20918;-92
2022/09/11 02:56:41;;;;;;;2.50;1.80;;;18.40;99.90;;;;;;5058722;28;20472;-94
2022/09/11 02:59:16;;;;;;;2.87;2.33;;;18.30;99.90;;;;;;5057576;28;20584;-95
2022/09/11 03:01:54;;;;;;;3.00;2.43;;;18.30;99.90;;;;;;5057360;28;20491;-95
2022/09/11 03:04:21;;;;;;;3.50;2.23;;;18.30;99.90;;;;;;5057133;28;20448;-93
2022/09/11 03:06:48;;;;;;;3.27;2.40;;;18.20;99.90;;;;;;5057578;28;20423;-93
2022/09/11 03:09:18;;;;;;;4.10;2.20;;;18.20;99.90;;;;;;5057177;28;20441;-96
2022/09/11 03:11:44;;;;;;;4.30;2.97;;;18.20;99.90;;;;;;5058974;28;20415;-94
2022/09/11 03:14:11;;;;;;;3.70;2.73;;;18.20;99.90;;;;;;5057770;28;20431;-95
2022/09/11 03:16:37;;;;;;;5.53;3.30;;;18.20;99.90;;;;;;5063056;28;20443;-92
2022/09/11 03:19:04;;;;;;;6.50;3.10;;;18.20;99.90;;;;;;5058373;28;20435;-92
2022/09/11 03:21:30;;;;;;;5.10;3.80;;;18.10;99.90;;;;;;5059380;28;20426;-94
2022/09/11 03:23:56;;;;;;;5.23;3.93;;;18.10;99.90;;;;;;5059535;28;20997;-96
2022/09/11 03:26:22;;;;;;;7.07;4.93;;;18.10;99.90;;;;;;5058566;28;20447;-95
2022/09/11 03:28:49;;;;;;;6.67;4.70;;;18.10;99.90;;;;;;5057688;28;20417;-95
2022/09/11 03:31:15;;;;;;;9.40;4.93;;;18.10;99.90;;;;;;5058804;28;20569;-92
2022/09/11 03:33:41;;;;;;;7.93;5.30;;;18.10;99.90;;;;;;5059126;28;20454;-92
2022/09/11 03:36:08;;;;;;;8.47;4.93;;;18.00;99.90;;;;;;5058995;28;20501;-93
2022/09/11 03:38:34;;;;;;;8.27;4.27;;;18.00;99.90;;;;;;5066715;28;20162;-92
2022/09/11 03:41:01;;;;;;;8.27;4.30;;;18.00;99.90;;;;;;5057804;28;20451;-96
2022/09/11 03:43:27;;;;;;;7.00;4.70;;;18.00;99.90;;;;;;5056211;28;20417;-96
2022/09/11 03:45:53;;;;;;;5.90;4.53;;;18.00;99.90;;;;;;5056337;28;20979;-94
2022/09/11 03:48:19;;;;;;;6.37;4.77;;;18.00;99.90;;;;;;5056081;28;20545;-95
2022/09/11 03:50:45;;;;;;;6.07;4.20;;;18.00;99.90;;;;;;5056306;28;20674;-92
2022/09/11 03:53:11;;;;;;;4.90;4.10;;;18.00;99.90;;;;;;5056122;28;20213;-95
2022/09/11 03:55:37;;;;;;;6.70;4.80;;;18.00;99.90;;;;;;5057290;28;20447;-95
2022/09/11 03:58:03;;;;;;;8.33;4.47;;;18.00;99.90;;;;;;5060684;28;20420;-93
2022/09/11 04:00:29;;;;;;;5.77;4.53;;;18.00;99.90;;;;;;5059951;28;20451;-94
2022/09/11 04:02:55;;;;;;;6.67;4.53;;;18.00;99.90;;;;;;5057023;28;20402;-90
2022/09/11 04:05:23;;;;;;;6.63;4.17;;;18.00;99.90;;;;;;5058520;28;20205;-95
2022/09/11 04:07:51;;;;;;;5.57;3.97;;;18.00;99.90;;;;;;5058185;28;20178;-91
2022/09/11 04:10:16;;;;;;;7.47;4.10;;;18.10;99.90;;;;;;5057757;28;20476;-95
2022/09/11 04:12:43;;;;;;;5.67;3.67;;;18.00;99.90;;;;;;5058753;28;20964;-92
2022/09/11 04:15:09;;;;;;;5.40;4.10;;;18.10;99.90;;;;;;5059009;28;20509;-91
2022/09/11 04:17:35;;;;;;;4.23;3.23;;;18.10;99.90;;;;;;5065872;28;20396;-94
2022/09/11 04:20:01;;;;;;;6.03;3.90;;;18.10;99.90;;;;;;5059658;28;20507;-95
2022/09/11 04:22:26;;;;;;;4.50;2.80;;;18.10;99.90;;;;;;5055617;28;20190;-93
2022/09/11 04:24:52;;;;;;;4.00;2.53;;;18.10;99.90;;;;;;5055326;28;20435;-95
2022/09/11 04:27:18;;;;;;;3.03;2.50;;;18.10;99.90;;;;;;5055772;28;20186;-92
2022/09/11 04:29:45;;;;;;;3.40;2.30;;;18.10;99.90;;;;;;5056057;28;20198;-92
2022/09/11 04:32:10;;;;;;;2.63;1.93;;;18.10;99.90;;;;;;5055243;28;20220;-91
2022/09/11 04:34:36;;;;;;;3.33;2.27;;;18.00;99.90;;;;;;5055221;28;20521;-95
2022/09/11 04:37:02;;;;;;;4.17;2.30;;;18.00;99.90;;;;;;5055130;28;20694;-94
2022/09/11 04:39:29;;;;;;;2.90;1.83;;;18.00;99.90;;;;;;5055068;28;20449;-95
2022/09/11 04:41:56;;;;;;;2.53;2.00;;;18.00;99.90;;;;;;5055247;28;20457;-92
2022/09/11 04:44:25;;;;;;;4.20;1.60;;;18.00;99.90;;;;;;5055103;28;20451;-94
2022/09/11 04:46:50;;;;;;;2.67;1.60;;;18.00;99.90;;;;;;5055632;28;20430;-95
2022/09/11 04:49:16;;;;;;;2.50;2.30;;;18.00;99.90;;;;;;5057726;28;20496;-92
2022/09/11 04:51:42;;;;;;;4.20;3.50;;;18.00;99.90;;;;;;5057616;28;20174;-95
2022/09/11 04:54:12;;;;;;;1.90;1.70;;;18.00;99.90;;;;;;5055859;28;20644;-95
2022/09/11 04:56:38;;;;;;;2.50;2.30;;;18.00;99.90;;;;;;5061059;28;20473;-95
2022/09/11 04:59:08;;;;;;;2.00;1.57;;;18.00;99.90;;;;;;5062378;28;20422;-95
2022/09/11 05:01:34;;;;;;;2.70;2.37;;;18.00;99.90;;;;;;5062018;28;20182;-93
2022/09/11 05:04:00;;;;;;;2.27;1.80;;;18.00;99.90;;;;;;5061256;28;20911;-92
2022/09/11 05:06:28;;;;;;;2.70;1.50;;;18.00;99.90;;;;;;5061143;28;20419;-96
2022/09/11 05:08:55;;;;;;;1.77;1.20;;;17.90;99.90;;;;;;5055265;28;20990;-95
2022/09/11 05:11:20;;;;;;;1.17;1.00;;;17.90;99.90;;;;;;5057995;28;20497;-94
2022/09/11 05:13:47;;;;;;;1.73;1.53;;;17.90;99.90;;;;;;5063072;28;20460;-95
2022/09/11 05:16:15;;;;;;;1.70;1.20;;;18.00;99.90;;;;;;5054689;28;20197;-96
2022/09/11 05:18:47;;;;;;;1.47;1.00;;;17.90;99.90;;;;;;5054516;28;20434;-92
2022/09/11 05:21:14;;;;;;;2.47;1.10;;;18.00;99.90;;;;;;5054744;28;20419;-93
2022/09/11 05:23:41;;;;;;;1.80;1.00;;;18.00;99.90;;;;;;5055270;28;20502;-92
2022/09/11 05:26:13;;;;;;;1.20;0.83;;;18.00;99.90;;;;;;5056374;28;20447;-92
2022/09/11 05:28:39;;;;;;;3.23;1.07;;;18.00;99.90;;;;;;5055406;28;20430;-96
2022/09/11 05:31:12;;;;;;;1.20;1.10;;;18.00;99.90;;;;;;5054791;28;20545;-92
2022/09/11 05:33:39;;;;;;;1.37;1.17;;;18.10;99.90;;;;;;5055161;28;20198;-95
2022/09/11 05:36:05;;;;;;;0.90;0.90;;;18.10;99.90;;;;;;5054952;28;20533;-92
2022/09/11 05:38:33;;;;;;;1.37;1.00;;;18.20;99.90;;;;;;5055573;28;20418;-91
2022/09/11 05:40:58;;;;;;;1.10;1.00;;;18.20;99.90;;;;;;5056285;28;20447;-96
2022/09/11 05:43:25;;;;;;;1.17;1.07;;;18.20;99.90;;;;;;5056204;28;20417;-91
2022/09/11 05:45:58;;;;;;;1.60;0.90;;;18.30;99.90;;;;;;5056398;28;20208;-93
2022/09/11 05:48:26;;;;;;;1.50;1.40;;;18.30;99.90;;;;;;5056604;28;20444;-96
2022/09/11 05:50:53;;;;;;;1.30;1.20;;;18.40;99.90;;;;;;5057326;28;20439;-92
2022/09/11 05:53:22;;;;;;;1.30;1.20;;;18.40;99.90;;;;;;5056979;28;20510;-95
2022/09/11 05:55:48;;;;;;;1.50;1.40;;;18.40;99.90;;;;;;5060636;28;20442;-95
2022/09/11 05:58:17;;;;;;;1.50;1.40;;;18.50;99.90;;;;;;5069075;28;20471;-92
2022/09/11 06:00:46;;;;;;;2.20;1.57;;;18.50;99.90;;;;;;5054234;28;20455;-95
2022/09/11 06:03:13;;;;;;;3.27;1.70;;;18.60;99.90;;;;;;5054309;28;21013;-92
2022/09/11 06:05:39;;;;;;;1.87;1.53;;;18.60;99.90;;;;;;5053750;28;20461;-96
2022/09/11 06:08:09;;;;;;;1.63;1.50;;;18.70;99.90;;;;;;5057959;28;20942;-93
2022/09/11 06:10:35;;;;;;;1.57;1.47;;;18.70;99.90;;;;;;5064659;28;20800;-93
2022/09/11 06:13:01;;;;;;;2.80;1.70;;;18.80;99.90;;;;;;5064747;28;20444;-93
2022/09/11 06:15:28;;;;;;;1.40;1.30;;;18.80;99.90;;;;;;5068884;28;20442;-92
2022/09/11 06:17:54;;;;;;;1.87;1.60;;;18.90;99.90;;;;;;5061040;28;20446;-94
2022/09/11 06:20:20;;;;;;;3.30;1.70;;;18.90;99.90;;;;;;5058469;28;20456;-95
2022/09/11 06:22:46;;;;;;;3.43;1.60;;;19.00;99.90;;;;;;5057715;28;20408;-95
2022/09/11 06:25:11;;;;;;;2.10;1.63;;;19.00;99.90;;;;;;5063133;28;20569;-95
2022/09/11 06:27:37;;;;;;;2.17;1.73;;;19.00;99.90;;;;;;5057611;28;20180;-94
2022/09/11 06:30:03;;;;;;;2.17;1.77;;;19.10;99.90;;;;;;5053545;28;20221;-92
2022/09/11 06:32:29;;;;;;;2.50;1.63;;;19.20;99.90;;;;;;5053379;28;20225;-94
2022/09/11 06:34:55;;;;;;;2.30;2.10;;;19.20;99.90;;;;;;5054813;28;20437;-96
2022/09/11 06:37:20;;;;;;;2.57;1.50;;;19.30;99.90;;;;;;5053532;28;20186;-95
2022/09/11 06:39:46;;;;;;;2.27;1.90;;;19.40;99.90;;;;;;5054739;28;20192;-95
2022/09/11 06:42:12;;;;;;;1.50;1.40;;;19.40;99.90;;;;;;5054235;28;20191;-94
2022/09/11 06:44:40;;;;;;;1.87;1.73;;;19.50;99.90;;;;;;5053859;28;20196;-95
2022/09/11 06:47:06;;;;;;;4.97;1.63;;;19.60;99.90;;;;;;5053722;28;20188;-95
2022/09/11 06:49:32;;;;;;;2.77;1.93;;;19.70;99.90;;;;;;5055550;28;20434;-92
2022/09/11 06:51:58;;;;;;;2.60;1.40;;;19.70;99.90;;;;;;5054199;28;20189;-94
2022/09/11 06:54:23;;;;;;;1.83;1.67;;;19.70;99.90;;;;;;5053820;28;20201;-96
2022/09/11 06:56:49;;;;;;;1.83;1.60;;;19.80;99.90;;;;;;5055168;28;20798;-92
2022/09/11 06:59:15;;;;;;;2.70;2.23;;;19.80;99.90;;;;;;5055746;28;20220;-96
2022/09/11 07:01:40;;;;;;;1.97;1.37;;;19.80;99.90;;;;;;5055465;28;20181;-95
2022/09/11 07:04:06;;;;;;;1.30;0.90;;;19.80;99.90;;;;;;5061451;28;20205;-92
2022/09/11 07:06:34;;;;;;;2.43;1.10;;;19.80;99.90;;;;;;5059743;28;20266;-91
2022/09/11 07:09:01;;;;;;;1.10;1.03;;;19.80;99.90;;;;;;5056853;28;20919;-94
2022/09/11 07:11:32;;;;;;;1.77;1.40;;;19.80;99.90;;;;;;5057111;28;20434;-92
2022/09/11 07:14:04;;;;;;;1.53;1.03;;;19.90;99.90;;;;;;5056693;28;20454;-92
2022/09/11 07:16:33;;;;;;;2.03;1.00;;;19.90;99.90;;;;;;5057443;28;20915;-92
2022/09/11 07:18:59;;;;;;;4.83;1.23;;;19.90;99.90;;;;;;5056443;28;20445;-92
2022/09/11 07:21:27;;;;;;;0.97;0.73;;;19.90;99.90;;;;;;5058092;28;20463;-92
2022/09/11 07:23:54;;;;;;;1.87;1.17;;;19.90;99.90;;;;;;5056607;28;20260;-95
2022/09/11 07:26:23;;;;;;;1.77;1.07;;;20.00;99.90;;;;;;5057975;28;20425;-96
2022/09/11 07:28:50;;;;;;;1.33;1.23;;;20.00;99.90;;;;;;5057515;28;20405;-92
2022/09/11 07:31:21;;;;;;;1.73;1.10;;;20.00;99.90;;;;;;5056834;28;20434;-95
2022/09/11 07:33:48;;;;;;;1.57;1.00;;;20.00;99.90;;;;;;5056928;28;21100;-95
2022/09/11 07:36:16;;;;;;;1.23;1.13;;;19.90;99.90;;;;;;5057052;28;20433;-92
2022/09/11 07:38:43;;;;;;;1.53;1.00;;;20.00;99.90;;;;;;5062717;28;20403;-95
2022/09/11 07:41:10;;;;;;;1.33;1.23;;;20.00;99.90;;;;;;5057545;28;20488;-95
2022/09/11 07:43:37;;;;;;;1.17;0.80;;;20.00;99.90;;;;;;5059000;28;20394;-96
2022/09/11 07:46:04;;;;;;;1.10;1.00;;;20.10;99.90;;;;;;5057549;28;20454;-95
2022/09/11 07:48:31;;;;;;;1.33;1.23;;;20.10;99.90;;;;;;5057718;28;20420;-92
2022/09/11 07:51:02;;;;;;;2.30;0.97;;;20.20;99.90;;;;;;5058664;28;20503;-91
2022/09/11 07:53:33;;;;;;;1.50;1.00;;;20.20;99.90;;;;;;5061103;28;20477;-96
2022/09/11 07:56:10;;;;;;;0.80;0.80;;;20.30;99.90;;;;;;5055844;28;20477;-92
2022/09/11 07:58:38;;;;;;;1.00;0.90;;;20.30;99.90;;;;;;5055857;28;20413;-95
2022/09/11 08:01:06;;;;;;;1.50;0.80;;;20.40;99.90;;;;;;5055857;28;20491;-95
2022/09/11 08:03:33;;;;;;;2.80;1.30;;;20.50;99.90;;;;;;5056835;28;20403;-95
2022/09/11 08:06:01;;;;;;;1.57;0.90;;;20.50;99.90;;;;;;5056948;28;20452;-92
2022/09/11 08:08:28;;;;;;;0.90;0.80;;;20.60;99.90;;;;;;5056974;28;20876;-93
2022/09/11 08:11:08;;;;;;;4.10;1.47;;;20.70;99.90;;;;;;5056596;28;20478;-92
2022/09/11 08:13:34;;;;;;;0.70;0.70;;;20.80;99.90;;;;;;5056463;28;20466;-93
2022/09/11 08:16:01;;;;;;;0.90;0.70;;;20.80;99.90;;;;;;5056866;28;20485;-92
2022/09/11 08:18:27;;;;;;;1.20;1.10;;;21.00;99.90;;;;;;5055037;28;20927;-95
2022/09/11 08:20:59;;;;;;;0.87;0.87;;;21.10;99.90;;;;;;5055429;28;20454;-95
2022/09/11 08:23:24;;;;;;;1.00;0.90;;;21.10;99.90;;;;;;5056902;28;20419;-95
2022/09/11 08:25:50;;;;;;;1.10;0.80;;;21.30;99.90;;;;;;5058757;28;20522;-96
2022/09/11 08:28:15;;;;;;;0.80;0.80;;;21.40;99.90;;;;;;5059127;28;20186;-92
2022/09/11 08:30:41;;;;;;;1.13;1.00;;;21.80;99.90;;;;;;5063722;28;20530;-93
2022/09/11 08:33:08;;;;;;;1.20;1.07;;;22.30;99.90;;;;;;5056659;28;20398;-95
2022/09/11 08:35:34;;;;;;;1.37;1.00;;;23.00;99.90;;;;;;5056390;28;20215;-95
2022/09/11 08:38:02;;;;;;;2.00;0.70;;;23.70;99.90;;;;;;5056258;28;20407;-95
2022/09/11 08:40:30;;;;;;;0.80;0.80;;;24.50;99.90;;;;;;5056558;28;20971;-95
2022/09/11 08:43:00;;;;;;;1.17;0.80;;;25.30;99.90;;;;;;5056568;28;20418;-94
2022/09/11 08:45:34;;;;;;;0.90;0.80;;;25.70;99.90;;;;;;5056653;28;20548;-96
2022/09/11 08:48:00;;;;;;;0.77;0.70;;;25.80;99.90;;;;;;5056783;28;20439;-95
2022/09/11 08:50:40;;;;;;;1.23;0.57;;;25.60;99.90;;;;;;5058444;28;20525;-92
2022/09/11 08:53:14;;;;;;;0.70;0.70;;;25.30;99.90;;;;;;5060559;28;20193;-92
2022/09/11 08:55:46;;;;;;;1.13;0.80;;;25.00;99.90;;;;;;5064204;28;20507;-95
2022/09/11 08:58:36;;;;;;;1.43;1.10;;;24.70;99.90;;;;;;5054893;28;20461;-95
2022/09/11 09:01:27;;;;;;;1.47;0.97;;;24.40;99.90;;;;;;5056112;28;20449;-91
2022/09/11 09:04:22;;;;;;;0.70;0.70;;;24.10;99.90;;;;;;5054740;28;20574;-92
2022/09/11 09:07:19;;;;;;;1.90;0.87;;;23.80;99.90;;;;;;5024684;28;20997;-92
2022/09/11 09:09:57;;;;;;;0.97;0.90;;;23.60;99.90;;;;;;5054503;28;21037;-95
2022/09/11 09:12:32;;;;;;;0.70;0.70;;;23.50;99.90;;;;;;5054818;28;20468;-95
2022/09/11 09:15:10;;;;;;;1.63;0.90;;;23.40;99.90;;;;;;5056337;28;20984;-96
2022/09/11 09:18:02;;;;;;;1.47;0.93;;;23.30;99.90;;;;;;5055346;28;20491;-93
2022/09/11 09:20:36;;;;;;;0.87;0.73;;;23.10;99.90;;;;;;5055655;28;20455;-92
2022/09/11 09:23:25;;;;;;;1.70;1.00;;;23.00;99.90;;;;;;5056633;28;20437;-92
2022/09/11 09:25:52;;;;;;;1.57;1.00;;;22.90;99.90;;;;;;5062712;28;20463;-91
2022/09/11 09:28:35;;;;;;;0.73;0.70;;;22.90;99.90;;;;;;5061527;28;20969;-94
2022/09/11 09:31:05;;;;;;;1.27;0.80;;;22.80;99.90;;;;;;5058394;28;20463;-92
2022/09/11 09:33:34;;;;;;;1.57;0.90;;;22.80;99.90;;;;;;5055982;28;21013;-94
2022/09/11 09:36:27;;;;;;;0.80;0.80;;;22.80;99.90;;;;;;5055207;28;20451;-95
2022/09/11 09:38:54;;;;;;;1.33;1.13;;;22.80;99.90;;;;;;5055964;28;20411;-95
2022/09/11 09:41:48;;;;;;;0.70;0.70;;;22.80;99.90;;;;;;5056802;28;20430;-92
2022/09/11 09:44:32;;;;;;;0.70;0.70;;;22.80;99.90;;;;;;5057081;28;20966;-95
2022/09/11 09:46:58;;;;;;;1.90;0.80;;;22.80;99.90;;;;;;5057801;28;20989;-95
2022/09/11 09:49:33;;;;;;;2.20;0.87;;;22.80;99.90;;;;;;5056337;28;20428;-92
2022/09/11 09:52:09;;;;;;;1.47;0.90;;;22.80;99.90;;;;;;5058289;28;20191;-94
2022/09/11 09:54:35;;;;;;;1.30;0.97;;;22.90;99.90;;;;;;5055953;28;20544;-93
2022/09/11 09:57:05;;;;;;;1.93;0.80;;;22.90;99.90;;;;;;5055624;28;20480;-94
2022/09/11 09:59:40;;;;;;;1.37;0.60;;;23.00;99.90;;;;;;5056961;28;20431;-93
2022/09/11 10:02:06;;;;;;;0.70;0.70;;;23.00;99.90;;;;;;5055194;28;20416;-92
2022/09/11 10:04:32;;;;;;;1.27;0.67;;;23.00;99.90;;;;;;5055596;28;20439;-93
2022/09/11 10:07:19;;;;;;;0.80;0.80;;;23.00;99.90;;;;;;5054388;28;20182;-90
2022/09/11 10:09:48;;;;;;;1.33;0.63;;;23.00;99.90;;;;;;5054308;28;20438;-94
2022/09/11 10:12:27;;;;;;;3.10;0.77;;;23.00;99.90;;;;;;5054803;28;20518;-96
2022/09/11 10:14:56;;;;;;;1.67;0.60;;;23.10;99.90;;;;;;5057445;28;20471;-91
2022/09/11 10:17:30;;;;;;;1.07;0.87;;;23.10;99.90;;;;;;5048475;28;20438;-94
2022/09/11 10:20:24;;;;;;;0.50;0.50;;;23.10;99.90;;;;;;5042100;28;20435;-92
2022/09/11 10:22:51;;;;;;;0.70;0.70;;;23.10;99.90;;;;;;5032548;28;20467;-91
2022/09/11 10:25:25;;;;;;;1.00;0.73;;;23.10;99.90;;;;;;5032353;28;20457;-94
2022/09/11 10:28:13;;;;;;;2.50;0.70;;;23.10;99.90;;;;;;5033269;28;20442;-94
2022/09/11 10:30:41;;;;;;;0.77;0.50;;;23.10;99.90;;;;;;5033319;28;20451;-91
2022/09/11 10:33:32;;;;;;;0.50;0.50;;;23.10;99.90;;;;;;5033814;28;21014;-95
2022/09/11 10:36:00;;;;;;;0.60;0.60;;;23.20;99.90;;;;;;5033086;28;20456;-96
2022/09/11 10:38:34;;;;;;;0.90;0.60;;;23.20;99.90;;;;;;5034114;28;20420;-91
2022/09/11 10:41:12;;;;;;;0.83;0.80;;;23.20;99.90;;;;;;5034365;28;20445;-96
2022/09/11 10:43:55;;;;;;;2.30;0.63;;;23.20;99.90;;;;;;5037455;28;20417;-96
2022/09/11 10:46:38;;;;;;;0.93;0.70;;;23.30;99.90;;;;;;5038291;28;20429;-96
2022/09/11 10:49:04;;;;;;;1.33;0.53;;;23.30;99.90;;;;;;5038953;28;20519;-96
2022/09/11 10:51:32;;;;;;;1.13;0.40;;;23.30;99.90;;;;;;5042318;28;20464;-90
2022/09/11 10:54:20;;;;;;;0.50;0.50;;;23.30;99.90;;;;;;5043541;28;20232;-96
2022/09/11 10:57:04;;;;;;;1.23;0.53;;;23.30;99.90;;;;;;5041604;28;20915;-91
2022/09/11 11:00:06;;;;;;;1.07;0.60;;;23.30;99.90;;;;;;5040142;28;20444;-90
2022/09/11 11:02:34;;;;;;;0.90;0.50;;;23.30;99.90;;;;;;5039937;28;20426;-96
2022/09/11 11:05:05;;;;;;;0.70;0.60;;;23.20;99.90;;;;;;5058078;28;20767;-90
2022/09/11 11:07:49;;;;;;;2.00;0.60;;;23.20;99.90;;;;;;5038262;28;20420;-91
2022/09/11 11:10:35;;;;;;;0.60;0.60;;;23.20;99.90;;;;;;5042971;28;20457;-96
2022/09/11 11:13:17;;;;;;;0.87;0.63;;;23.20;99.90;;;;;;5041846;28;20487;-95
2022/09/11 11:16:20;;;;;;;0.80;0.80;;;23.20;99.90;;;;;;5043740;28;20453;-91
2022/09/11 11:18:52;;;;;;;3.23;0.60;;;23.20;99.90;;;;;;5040520;28;20417;-91
2022/09/11 11:21:26;;;;;;;0.70;0.70;;;23.20;99.90;;;;;;5042505;28;20425;-91
2022/09/11 11:23:58;;;;;;;1.03;0.70;;;23.30;99.90;;;;;;5040242;28;20413;-93
2022/09/11 11:26:54;;;;;;;1.20;1.10;;;23.30;99.90;;;;;;5037787;28;20436;-95
2022/09/11 11:29:35;;;;;;;0.63;0.60;;;23.40;99.90;;;;;;5036685;28;20449;-89
2022/09/11 11:32:04;;;;;;;0.90;0.83;;;23.40;99.90;;;;;;5038232;28;20428;-89
2022/09/11 11:35:07;;;;;;;0.60;0.60;;;23.50;99.90;;;;;;5037897;28;20440;-90
2022/09/11 11:37:37;;;;;;;0.70;0.70;;;23.60;99.90;;;;;;5039158;28;20426;-96
2022/09/11 11:40:19;;;;;;;0.70;0.70;;;23.60;99.90;;;;;;5045405;28;20445;-92
2022/09/11 11:43:03;;;;;;;0.90;0.90;;;23.60;99.90;;;;;;5039356;28;20415;-91
2022/09/11 11:45:36;;;;;;;0.57;0.57;;;23.60;99.90;;;;;;5040841;28;20461;-90
2022/09/11 11:48:11;;;;;;;1.10;1.00;;;23.60;99.90;;;;;;5048393;28;20428;-95
2022/09/11 11:50:42;;;;;;;0.60;0.60;;;23.60;99.90;;;;;;5044774;28;20543;-95
2022/09/11 11:53:23;;;;;;;2.97;0.80;;;23.60;99.90;;;;;;5043480;28;20480;-96
2022/09/11 11:56:16;;;;;;;0.70;0.70;;;23.60;99.90;;;;;;5058584;28;20527;-94
2022/09/11 11:59:03;;;;;;;1.47;0.43;;;23.60;99.90;;;;;;5059171;28;20412;-90
2022/09/11 12:01:47;;;;;;;0.50;0.50;;;23.50;99.90;;;;;;5057367;28;20436;-89
2022/09/11 12:04:38;;;;;;;1.50;0.87;;;23.50;99.90;;;;;;5058309;28;20510;-95
2022/09/11 12:07:12;;;;;;;1.20;0.60;;;23.40;99.90;;;;;;5065966;28;20444;-95
2022/09/11 12:09:38;;;;;;;1.33;0.90;;;23.40;99.90;;;;;;5067534;28;20428;-94
2022/09/11 12:12:06;;;;;;;0.90;0.70;;;23.40;99.90;;;;;;5057405;28;20443;-93
2022/09/11 12:14:35;;;;;;;1.33;0.70;;;23.40;99.90;;;;;;5055264;28;20208;-90
2022/09/11 12:17:26;;;;;;;1.63;0.67;;;23.40;99.90;;;;;;5053179;28;20432;-92
2022/09/11 12:20:10;;;;;;;0.80;0.80;;;23.40;99.90;;;;;;5054121;28;20447;-91
2022/09/11 12:22:37;;;;;;;0.80;0.80;;;23.40;99.90;;;;;;5052164;28;20815;-91
2022/09/11 12:25:23;;;;;;;0.80;0.63;;;23.40;99.90;;;;;;5039943;28;20452;-93
2022/09/11 12:27:52;;;;;;;0.80;0.60;;;23.50;99.90;;;;;;5042800;28;20432;-89
2022/09/11 12:30:21;;;;;;;1.33;1.10;;;23.40;99.90;;;;;;5058047;28;20534;-89
2022/09/11 12:32:47;;;;;;;0.90;0.90;;;23.40;99.90;;;;;;5067996;28;20448;-93
2022/09/11 12:35:38;;;;;;;1.13;0.70;;;23.50;99.90;;;;;;5060768;28;20460;-93
2022/09/11 12:38:12;;;;;;;0.90;0.80;;;23.60;99.90;;;;;;5057494;28;20417;-92
2022/09/11 12:40:42;;;;;;;1.37;0.67;;;23.60;99.90;;;;;;5056671;28;20451;-94
2022/09/11 12:43:17;;;;;;;0.73;0.60;;;23.60;99.90;;;;;;5062731;28;20482;-96
2022/09/11 12:45:46;;;;;;;0.60;0.60;;;23.60;99.90;;;;;;5061824;28;20457;-89
2022/09/11 12:48:24;;;;;;;0.60;0.60;;;23.50;99.90;;;;;;5059027;28;20460;-92
2022/09/11 12:50:54;;;;;;;0.70;0.70;;;23.50;99.90;;;;;;5046505;28;20453;-92
2022/09/11 12:53:28;;;;;;;2.40;0.70;;;23.50;99.90;;;;;;5054497;28;20485;-93
2022/09/11 12:55:58;;;;;;;0.90;0.70;;;23.40;99.90;;;;;;5052731;28;20480;-92
2022/09/11 12:58:24;;;;;;;3.50;0.80;;;23.40;99.90;;;;;;5056153;28;20457;-91
2022/09/11 13:01:01;;;;;;;0.83;0.83;;;23.30;99.90;;;;;;5054547;28;20457;-89
2022/09/11 13:03:31;;;;;;;5.03;1.13;;;23.30;99.90;;;;;;5072855;28;20187;-95
2022/09/11 13:06:12;;;;;;;4.30;1.03;;;23.30;99.90;;;;;;5056439;28;20890;-94
2022/09/11 13:08:58;;;;;;;2.00;1.00;;;23.20;99.90;;;;;;5057409;28;20428;-91
2022/09/11 13:11:35;;;;;;;2.60;1.33;;;23.20;99.90;;;;;;5046513;28;20448;-93
2022/09/11 13:14:01;;;;;;;0.80;0.80;;;23.30;99.90;;;;;;5050103;28;20465;-94